Rochester International Airport
KRST : now visible

Airfield :











YOU CAN JOIN US ON...

 
LOGIN :

Register | Disclaimer

   EN    FR    IT 

 









Legend :    VFR   Marginal VFR   IFR   Intensive IFR   Very Intensive IFR
Visi :
Ceiling :
>= 8 km
>= 3000ft
5 to 8 km
1000 to 3000 ft
1500m to 5 km
500 to 1000 ft
800 to 1500m
200 to 500 ft
< 800m
< 200 ft
Symbols :   Thunderstorms  Fog  Heavy snow  Heavy precipitations  Wind > 20 kt







- Airport Elevation : 1317 ft
- IATA code : RST


KRST - Rochester International

CURRENT METAR :
  • 161854Z 12005KT 10SM SCT110 M09/M13 A3006 RMK AO2 SLP210 T10941133

EXPIRED METARs :
  • 161754Z 12007KT 10SM OVC110 M10/M14 A3009 RMK AO2 SLP222 T11001144 11100 21217 56007
  • 161654Z 06005KT 10SM OVC110 M12/M16 A3009 RMK AO2 SLP224 T11221156

TAF KRST
Valid from the 16 at 18:00 until the 17 at 18:00 UTC


161731Z 1618/1718 08006KT P6SM OVC110
FM170800 08010KT 6SM -SN OVC020
FM171000 06012KT 1 1/2SM -SN OVC008
KZMP FIR / North America



MET'MAP, your aeronautical weather chart ! - Copyright ORBIFLY December 2007 - Disclaimer

ORBIFLY MET'MAP TEAM :

Programming & Development : Alexandra Zaïnal
Concept & Development : Baudouin d'Aumeries
Co-Development & Prog : Marc-Olivier Méhu
Technical & hardware support : Manuel Goepfert

Contact : metmap@orbifly.com




SOURCES & CREDITS :

   NOAA       Earth
Advisory